Terminal Aerodrome Forecast
Issued by NWS Jacksonville, FL

Home | Current Version | Previous Version | Text Only | Print | Product List | Glossary On
Versions: 1 2 3 4 5 6 7 8 9 10 11 12 13 14 15 16 17 18 19 20 21 22 23 24
685
FTUS42 KJAX 220520
TAFGNV
TAF
KGNV 220520Z 2206/2306 00000KT P6SM SCT250
     FM221500 23006KT P6SM SCT025
     FM221700 22006KT P6SM VCTS BKN040CB BKN250
      TEMPO 2219/2222 VRB10G20KT 3SM TSRA
     FM230100 21003KT P6SM BKN250=

USA.gov is the U.S. government's official web portal to all federal, state and local government web resources and services.